sensor_id;sensor_type;location;lat;lon;timestamp;pressure;altitude;pressure_sealevel;temperature;humidity
12349;BME280;5974;42.710;27.258;2023-09-08T00:02:22;100523.59;;;17.39;100.00
12349;BME280;5974;42.710;27.258;2023-09-08T00:04:49;100524.50;;;17.38;100.00
12349;BME280;5974;42.710;27.258;2023-09-08T00:07:16;100533.97;;;17.28;100.00
12349;BME280;5974;42.710;27.258;2023-09-08T00:09:44;100526.63;;;17.19;100.00
12349;BME280;5974;42.710;27.258;2023-09-08T00:12:11;100532.91;;;17.02;100.00
12349;BME280;5974;42.710;27.258;2023-09-08T00:14:38;100537.28;;;17.03;100.00
12349;BME280;5974;42.710;27.258;2023-09-08T00:17:05;100528.66;;;17.00;100.00
12349;BME280;5974;42.710;27.258;2023-09-08T00:19:32;100529.78;;;16.96;100.00
12349;BME280;5974;42.710;27.258;2023-09-08T00:21:59;100538.00;;;16.91;100.00
12349;BME280;5974;42.710;27.258;2023-09-08T00:24:26;100541.13;;;16.98;100.00
12349;BME280;5974;42.710;27.258;2023-09-08T00:26:54;100534.81;;;17.00;100.00
12349;BME280;5974;42.710;27.258;2023-09-08T00:29:21;100539.31;;;16.98;100.00
12349;BME280;5974;42.710;27.258;2023-09-08T00:31:48;100540.47;;;16.94;100.00
12349;BME280;5974;42.710;27.258;2023-09-08T00:34:15;100546.13;;;16.88;100.00
12349;BME280;5974;42.710;27.258;2023-09-08T00:36:42;100538.63;;;16.80;100.00
12349;BME280;5974;42.710;27.258;2023-09-08T00:39:09;100543.53;;;16.72;100.00
12349;BME280;5974;42.710;27.258;2023-09-08T00:41:35;100544.63;;;16.68;100.00
12349;BME280;5974;42.710;27.258;2023-09-08T00:44:04;100520.00;;;16.38;100.00
12349;BME280;5974;42.710;27.258;2023-09-08T00:46:34;100542.72;;;16.56;100.00
12349;BME280;5974;42.710;27.258;2023-09-08T00:49:01;100536.22;;;16.46;100.00
12349;BME280;5974;42.710;27.258;2023-09-08T00:51:28;100544.94;;;16.48;100.00
12349;BME280;5974;42.710;27.258;2023-09-08T00:53:55;100540.59;;;16.47;100.00
12349;BME280;5974;42.710;27.258;2023-09-08T00:56:22;100546.41;;;16.38;100.00
12349;BME280;5974;42.710;27.258;2023-09-08T00:58:49;100548.97;;;16.24;100.00
12349;BME280;5974;42.710;27.258;2023-09-08T01:01:17;100544.88;;;16.03;100.00
12349;BME280;5974;42.710;27.258;2023-09-08T01:03:45;100541.91;;;16.09;100.00
12349;BME280;5974;42.710;27.258;2023-09-08T01:06:12;100537.47;;;16.09;100.00
12349;BME280;5974;42.710;27.258;2023-09-08T01:08:39;100533.75;;;16.13;100.00
12349;BME280;5974;42.710;27.258;2023-09-08T01:11:07;100528.72;;;16.09;100.00
12349;BME280;5974;42.710;27.258;2023-09-08T01:13:34;100524.22;;;16.11;100.00
12349;BME280;5974;42.710;27.258;2023-09-08T01:16:01;100518.06;;;16.26;100.00
12349;BME280;5974;42.710;27.258;2023-09-08T01:18:29;100515.94;;;16.33;100.00
12349;BME280;5974;42.710;27.258;2023-09-08T01:21:13;100520.34;;;16.32;100.00
12349;BME280;5974;42.710;27.258;2023-09-08T01:23:59;100520.00;;;16.38;100.00
12349;BME280;5974;42.710;27.258;2023-09-08T01:26:34;100523.38;;;16.40;100.00
12349;BME280;5974;42.710;27.258;2023-09-08T01:29:02;100521.22;;;16.33;100.00
12349;BME280;5974;42.710;27.258;2023-09-08T01:31:31;100511.00;;;16.26;100.00
12349;BME280;5974;42.710;27.258;2023-09-08T01:33:58;100517.03;;;16.28;100.00
12349;BME280;5974;42.710;27.258;2023-09-08T01:36:26;100504.78;;;16.27;100.00
12349;BME280;5974;42.710;27.258;2023-09-08T01:38:53;100508.09;;;16.31;100.00
12349;BME280;5974;42.710;27.258;2023-09-08T01:41:20;100504.38;;;16.19;100.00
12349;BME280;5974;42.710;27.258;2023-09-08T01:43:48;100500.03;;;16.18;100.00
12349;BME280;5974;42.710;27.258;2023-09-08T01:46:15;100491.13;;;16.05;100.00
12349;BME280;5974;42.710;27.258;2023-09-08T01:48:42;100501.69;;;16.05;100.00
12349;BME280;5974;42.710;27.258;2023-09-08T01:51:08;100485.50;;;16.11;100.00
12349;BME280;5974;42.710;27.258;2023-09-08T01:53:35;100489.44;;;16.34;100.00
12349;BME280;5974;42.710;27.258;2023-09-08T01:56:02;100487.13;;;16.44;100.00
12349;BME280;5974;42.710;27.258;2023-09-08T01:58:29;100490.78;;;16.57;100.00
12349;BME280;5974;42.710;27.258;2023-09-08T02:01:21;100484.28;;;16.62;100.00
12349;BME280;5974;42.710;27.258;2023-09-08T02:03:47;100487.38;;;16.55;100.00
12349;BME280;5974;42.710;27.258;2023-09-08T02:06:14;100481.44;;;16.65;100.00
12349;BME280;5974;42.710;27.258;2023-09-08T02:08:41;100481.63;;;16.62;100.00
12349;BME280;5974;42.710;27.258;2023-09-08T02:11:08;100475.16;;;16.52;100.00
12349;BME280;5974;42.710;27.258;2023-09-08T02:13:35;100469.88;;;16.52;100.00
12349;BME280;5974;42.710;27.258;2023-09-08T02:16:02;100481.41;;;16.51;100.00
12349;BME280;5974;42.710;27.258;2023-09-08T02:18:30;100478.84;;;16.20;100.00
12349;BME280;5974;42.710;27.258;2023-09-08T02:20:57;100478.69;;;16.37;100.00
12349;BME280;5974;42.710;27.258;2023-09-08T02:23:24;100486.25;;;16.43;100.00
12349;BME280;5974;42.710;27.258;2023-09-08T02:25:51;100483.19;;;16.51;100.00
12349;BME280;5974;42.710;27.258;2023-09-08T02:28:18;100488.03;;;16.43;100.00
12349;BME280;5974;42.710;27.258;2023-09-08T02:30:45;100487.28;;;16.41;100.00
12349;BME280;5974;42.710;27.258;2023-09-08T02:33:11;100481.75;;;16.45;100.00
12349;BME280;5974;42.710;27.258;2023-09-08T02:35:40;100493.06;;;16.47;100.00
12349;BME280;5974;42.710;27.258;2023-09-08T02:38:06;100499.13;;;16.34;100.00
12349;BME280;5974;42.710;27.258;2023-09-08T02:40:33;100463.75;;;16.22;100.00
12349;BME280;5974;42.710;27.258;2023-09-08T02:43:00;100485.47;;;16.27;100.00
12349;BME280;5974;42.710;27.258;2023-09-08T02:45:27;100486.03;;;16.32;100.00
12349;BME280;5974;42.710;27.258;2023-09-08T02:47:54;100485.19;;;16.32;100.00
12349;BME280;5974;42.710;27.258;2023-09-08T02:50:21;100483.41;;;16.32;100.00
12349;BME280;5974;42.710;27.258;2023-09-08T02:52:50;100481.84;;;16.44;100.00
12349;BME280;5974;42.710;27.258;2023-09-08T02:55:16;100485.50;;;16.41;100.00
12349;BME280;5974;42.710;27.258;2023-09-08T02:57:43;100489.19;;;16.39;100.00
12349;BME280;5974;42.710;27.258;2023-09-08T03:00:11;100482.22;;;16.22;100.00
12349;BME280;5974;42.710;27.258;2023-09-08T03:02:38;100492.44;;;16.28;100.00
12349;BME280;5974;42.710;27.258;2023-09-08T03:05:05;100476.72;;;16.41;100.00
12349;BME280;5974;42.710;27.258;2023-09-08T03:07:32;100490.84;;;16.55;100.00
12349;BME280;5974;42.710;27.258;2023-09-08T03:10:05;100480.91;;;16.74;100.00
12349;BME280;5974;42.710;27.258;2023-09-08T03:12:32;100460.88;;;16.70;100.00
12349;BME280;5974;42.710;27.258;2023-09-08T03:15:01;100481.31;;;16.97;100.00
12349;BME280;5974;42.710;27.258;2023-09-08T03:17:28;100489.50;;;16.92;100.00
12349;BME280;5974;42.710;27.258;2023-09-08T03:19:54;100483.56;;;17.03;100.00
12349;BME280;5974;42.710;27.258;2023-09-08T03:22:21;100478.47;;;17.14;100.00
12349;BME280;5974;42.710;27.258;2023-09-08T03:24:50;100476.50;;;17.31;100.00
12349;BME280;5974;42.710;27.258;2023-09-08T03:27:19;100470.53;;;17.42;100.00
12349;BME280;5974;42.710;27.258;2023-09-08T03:29:46;100470.63;;;17.55;100.00
12349;BME280;5974;42.710;27.258;2023-09-08T03:32:12;100451.22;;;17.54;100.00
12349;BME280;5974;42.710;27.258;2023-09-08T03:34:39;100465.09;;;17.72;100.00
12349;BME280;5974;42.710;27.258;2023-09-08T03:37:06;100458.47;;;17.79;100.00
12349;BME280;5974;42.710;27.258;2023-09-08T03:39:33;100461.16;;;17.92;100.00
12349;BME280;5974;42.710;27.258;2023-09-08T03:42:01;100462.69;;;17.96;100.00
12349;BME280;5974;42.710;27.258;2023-09-08T03:44:29;100466.75;;;18.14;100.00
12349;BME280;5974;42.710;27.258;2023-09-08T03:46:56;100444.81;;;17.99;100.00
12349;BME280;5974;42.710;27.258;2023-09-08T03:49:23;100462.34;;;18.27;100.00
12349;BME280;5974;42.710;27.258;2023-09-08T03:51:50;100455.78;;;18.32;100.00
12349;BME280;5974;42.710;27.258;2023-09-08T03:54:17;100423.16;;;18.32;100.00
12349;BME280;5974;42.710;27.258;2023-09-08T03:56:44;100453.22;;;18.58;100.00
12349;BME280;5974;42.710;27.258;2023-09-08T03:59:10;100457.34;;;18.62;100.00
12349;BME280;5974;42.710;27.258;2023-09-08T04:01:39;100457.66;;;18.95;100.00
12349;BME280;5974;42.710;27.258;2023-09-08T04:04:05;100460.53;;;19.05;100.00
12349;BME280;5974;42.710;27.258;2023-09-08T04:06:32;100455.13;;;19.06;100.00
12349;BME280;5974;42.710;27.258;2023-09-08T04:08:59;100450.03;;;19.16;100.00
12349;BME280;5974;42.710;27.258;2023-09-08T04:11:26;100459.00;;;19.26;100.00
12349;BME280;5974;42.710;27.258;2023-09-08T04:13:53;100456.25;;;19.27;100.00
12349;BME280;5974;42.710;27.258;2023-09-08T04:16:20;100450.63;;;19.32;100.00
12349;BME280;5974;42.710;27.258;2023-09-08T04:18:48;100453.91;;;19.35;100.00
12349;BME280;5974;42.710;27.258;2023-09-08T04:21:15;100429.09;;;19.24;100.00
12349;BME280;5974;42.710;27.258;2023-09-08T04:23:41;100456.91;;;19.31;100.00
12349;BME280;5974;42.710;27.258;2023-09-08T04:26:08;100443.38;;;19.10;100.00
12349;BME280;5974;42.710;27.258;2023-09-08T04:28:36;100464.09;;;19.29;100.00
12349;BME280;5974;42.710;27.258;2023-09-08T04:31:03;100461.84;;;19.35;100.00
12349;BME280;5974;42.710;27.258;2023-09-08T04:33:30;100458.53;;;19.57;100.00
12349;BME280;5974;42.710;27.258;2023-09-08T04:35:58;100463.25;;;19.77;100.00
12349;BME280;5974;42.710;27.258;2023-09-08T04:38:25;100474.88;;;19.87;100.00
12349;BME280;5974;42.710;27.258;2023-09-08T04:40:52;100478.97;;;20.04;100.00
12349;BME280;5974;42.710;27.258;2023-09-08T04:43:18;100476.50;;;20.25;100.00
12349;BME280;5974;42.710;27.258;2023-09-08T04:45:45;100484.38;;;20.61;100.00
12349;BME280;5974;42.710;27.258;2023-09-08T04:48:12;100480.88;;;21.06;100.00
12349;BME280;5974;42.710;27.258;2023-09-08T04:50:39;100465.06;;;22.97;100.00
12349;BME280;5974;42.710;27.258;2023-09-08T04:53:07;100466.28;;;24.13;99.99
12349;BME280;5974;42.710;27.258;2023-09-08T04:55:34;100453.31;;;25.94;86.35
12349;BME280;5974;42.710;27.258;2023-09-08T04:58:01;100467.31;;;27.62;74.86
12349;BME280;5974;42.710;27.258;2023-09-08T05:00:28;100461.75;;;28.21;70.03
12349;BME280;5974;42.710;27.258;2023-09-08T05:02:55;100462.41;;;28.80;67.46
12349;BME280;5974;42.710;27.258;2023-09-08T05:05:21;100459.09;;;28.45;64.84
12349;BME280;5974;42.710;27.258;2023-09-08T05:07:48;100452.63;;;29.03;62.98
12349;BME280;5974;42.710;27.258;2023-09-08T05:10:17;100444.97;;;31.42;58.55
12349;BME280;5974;42.710;27.258;2023-09-08T05:12:44;100451.13;;;31.50;54.86
12349;BME280;5974;42.710;27.258;2023-09-08T05:15:11;100450.31;;;32.49;52.41
12349;BME280;5974;42.710;27.258;2023-09-08T05:17:40;100447.03;;;31.54;52.26
12349;BME280;5974;42.710;27.258;2023-09-08T05:20:08;100428.63;;;30.77;53.52
12349;BME280;5974;42.710;27.258;2023-09-08T05:22:36;100447.50;;;29.71;54.94
12349;BME280;5974;42.710;27.258;2023-09-08T05:25:03;100443.97;;;29.93;55.43
12349;BME280;5974;42.710;27.258;2023-09-08T05:27:31;100445.63;;;29.72;55.17
12349;BME280;5974;42.710;27.258;2023-09-08T05:29:58;100438.06;;;30.43;54.42
12349;BME280;5974;42.710;27.258;2023-09-08T05:32:25;100434.75;;;30.56;52.61
12349;BME280;5974;42.710;27.258;2023-09-08T05:34:52;100446.09;;;30.29;53.38
12349;BME280;5974;42.710;27.258;2023-09-08T05:37:19;100413.31;;;29.64;54.63
12349;BME280;5974;42.710;27.258;2023-09-08T05:39:46;100443.22;;;31.05;53.40
12349;BME280;5974;42.710;27.258;2023-09-08T05:42:13;100451.81;;;30.11;53.67
12349;BME280;5974;42.710;27.258;2023-09-08T05:44:41;100440.81;;;30.13;54.26
12349;BME280;5974;42.710;27.258;2023-09-08T05:47:08;100449.75;;;30.13;54.06
12349;BME280;5974;42.710;27.258;2023-09-08T05:49:35;100462.06;;;29.07;55.37
12349;BME280;5974;42.710;27.258;2023-09-08T05:52:02;100443.88;;;29.48;54.04
12349;BME280;5974;42.710;27.258;2023-09-08T05:54:29;100438.19;;;30.64;53.11
12349;BME280;5974;42.710;27.258;2023-09-08T05:56:56;100449.06;;;30.79;53.54
12349;BME280;5974;42.710;27.258;2023-09-08T05:59:23;100454.66;;;31.51;51.86
12349;BME280;5974;42.710;27.258;2023-09-08T06:01:51;100465.72;;;32.49;50.52
12349;BME280;5974;42.710;27.258;2023-09-08T06:04:18;100460.53;;;31.54;51.08
12349;BME280;5974;42.710;27.258;2023-09-08T06:06:45;100467.38;;;31.06;51.14
12349;BME280;5974;42.710;27.258;2023-09-08T06:09:12;100467.97;;;32.17;49.31
12349;BME280;5974;42.710;27.258;2023-09-08T06:11:41;100467.53;;;31.63;50.46
12349;BME280;5974;42.710;27.258;2023-09-08T06:14:08;100459.91;;;30.56;51.92
12349;BME280;5974;42.710;27.258;2023-09-08T06:16:35;100473.03;;;32.27;49.23
12349;BME280;5974;42.710;27.258;2023-09-08T06:19:04;100475.56;;;32.07;50.33
12349;BME280;5974;42.710;27.258;2023-09-08T06:21:31;100479.28;;;32.49;48.98
12349;BME280;5974;42.710;27.258;2023-09-08T06:23:58;100477.56;;;30.82;50.83
12349;BME280;5974;42.710;27.258;2023-09-08T06:26:24;100474.00;;;30.81;50.89
12349;BME280;5974;42.710;27.258;2023-09-08T06:28:51;100476.31;;;31.51;50.55
12349;BME280;5974;42.710;27.258;2023-09-08T06:31:19;100420.97;;;29.83;52.58
12349;BME280;5974;42.710;27.258;2023-09-08T06:33:46;100485.72;;;31.40;51.80
12349;BME280;5974;42.710;27.258;2023-09-08T06:36:16;100494.50;;;32.29;49.53
12349;BME280;5974;42.710;27.258;2023-09-08T06:38:43;100501.09;;;31.40;50.59
12349;BME280;5974;42.710;27.258;2023-09-08T06:41:11;100495.06;;;31.52;51.23
12349;BME280;5974;42.710;27.258;2023-09-08T06:43:38;100490.00;;;32.00;50.96
12349;BME280;5974;42.710;27.258;2023-09-08T06:46:05;100492.47;;;32.80;49.90
12349;BME280;5974;42.710;27.258;2023-09-08T06:48:31;100502.97;;;31.68;51.69
12349;BME280;5974;42.710;27.258;2023-09-08T06:50:58;100500.91;;;31.27;53.01
12349;BME280;5974;42.710;27.258;2023-09-08T06:53:27;100502.69;;;32.78;51.41
12349;BME280;5974;42.710;27.258;2023-09-08T06:55:54;100503.72;;;33.04;50.45
12349;BME280;5974;42.710;27.258;2023-09-08T06:58:20;100511.59;;;32.99;49.80
12349;BME280;5974;42.710;27.258;2023-09-08T07:00:47;100500.63;;;32.16;51.48
12349;BME280;5974;42.710;27.258;2023-09-08T07:03:15;100513.66;;;31.47;52.20
12349;BME280;5974;42.710;27.258;2023-09-08T07:05:42;100485.31;;;31.29;53.94
12349;BME280;5974;42.710;27.258;2023-09-08T07:08:09;100502.03;;;31.47;53.81
12349;BME280;5974;42.710;27.258;2023-09-08T07:10:37;100500.47;;;31.52;52.90
12349;BME280;5974;42.710;27.258;2023-09-08T07:13:04;100493.34;;;31.81;53.38
12349;BME280;5974;42.710;27.258;2023-09-08T07:15:31;100498.03;;;31.93;52.71
12349;BME280;5974;42.710;27.258;2023-09-08T07:17:58;100501.09;;;32.90;51.54
12349;BME280;5974;42.710;27.258;2023-09-08T07:20:25;100500.41;;;33.37;50.03
12349;BME280;5974;42.710;27.258;2023-09-08T07:22:52;100497.69;;;33.37;50.33
12349;BME280;5974;42.710;27.258;2023-09-08T07:25:18;100506.28;;;33.40;50.46
12349;BME280;5974;42.710;27.258;2023-09-08T07:27:47;100502.72;;;31.99;52.18
12349;BME280;5974;42.710;27.258;2023-09-08T07:30:18;100484.72;;;31.56;52.19
12349;BME280;5974;42.710;27.258;2023-09-08T07:32:44;100494.72;;;30.51;54.06
12349;BME280;5974;42.710;27.258;2023-09-08T07:35:11;100495.25;;;30.47;54.84
12349;BME280;5974;42.710;27.258;2023-09-08T07:37:40;100487.31;;;30.23;55.86
12349;BME280;5974;42.710;27.258;2023-09-08T07:40:08;100474.66;;;28.98;59.48
12349;BME280;5974;42.710;27.258;2023-09-08T07:42:35;100493.22;;;28.53;60.41
12349;BME280;5974;42.710;27.258;2023-09-08T07:45:05;100484.59;;;28.09;62.53
12349;BME280;5974;42.710;27.258;2023-09-08T07:47:32;100484.22;;;28.04;63.51
12349;BME280;5974;42.710;27.258;2023-09-08T07:50:16;100495.78;;;27.80;64.83
12349;BME280;5974;42.710;27.258;2023-09-08T07:52:44;100474.41;;;27.71;65.31
12349;BME280;5974;42.710;27.258;2023-09-08T07:55:11;100484.97;;;27.72;66.81
12349;BME280;5974;42.710;27.258;2023-09-08T07:57:37;100488.50;;;27.65;66.32
12349;BME280;5974;42.710;27.258;2023-09-08T08:00:07;100478.09;;;27.36;67.10
12349;BME280;5974;42.710;27.258;2023-09-08T08:02:36;100483.06;;;27.57;68.64
12349;BME280;5974;42.710;27.258;2023-09-08T08:05:04;100486.69;;;27.81;67.59
12349;BME280;5974;42.710;27.258;2023-09-08T08:07:31;100475.78;;;27.91;67.99
12349;BME280;5974;42.710;27.258;2023-09-08T08:09:58;100475.31;;;27.95;67.23
12349;BME280;5974;42.710;27.258;2023-09-08T08:12:26;100468.41;;;28.01;67.04
12349;BME280;5974;42.710;27.258;2023-09-08T08:14:52;100479.41;;;28.16;65.87
12349;BME280;5974;42.710;27.258;2023-09-08T08:17:21;100472.03;;;28.18;66.21
12349;BME280;5974;42.710;27.258;2023-09-08T08:19:48;100470.84;;;28.44;64.43
12349;BME280;5974;42.710;27.258;2023-09-08T08:22:15;100473.19;;;28.31;62.65
12349;BME280;5974;42.710;27.258;2023-09-08T08:24:42;100477.38;;;28.34;64.95
12349;BME280;5974;42.710;27.258;2023-09-08T08:27:08;100483.94;;;28.15;64.34
12349;BME280;5974;42.710;27.258;2023-09-08T08:29:35;100467.78;;;28.15;65.24
12349;BME280;5974;42.710;27.258;2023-09-08T08:32:03;100471.50;;;28.22;63.91
12349;BME280;5974;42.710;27.258;2023-09-08T08:34:31;100482.09;;;28.08;66.00
12349;BME280;5974;42.710;27.258;2023-09-08T08:36:58;100481.59;;;28.28;64.76
12349;BME280;5974;42.710;27.258;2023-09-08T08:39:25;100478.56;;;28.56;63.36
12349;BME280;5974;42.710;27.258;2023-09-08T08:41:52;100487.16;;;28.27;63.21
12349;BME280;5974;42.710;27.258;2023-09-08T08:44:19;100471.69;;;28.21;62.11
12349;BME280;5974;42.710;27.258;2023-09-08T08:46:47;100482.78;;;28.42;61.24
12349;BME280;5974;42.710;27.258;2023-09-08T08:49:15;100427.75;;;28.04;62.35
12349;BME280;5974;42.710;27.258;2023-09-08T08:51:44;100477.59;;;28.65;61.81
12349;BME280;5974;42.710;27.258;2023-09-08T08:54:13;100477.25;;;28.51;61.33
12349;BME280;5974;42.710;27.258;2023-09-08T08:56:40;100482.78;;;28.74;56.10
12349;BME280;5974;42.710;27.258;2023-09-08T08:59:09;100468.94;;;29.01;56.44
12349;BME280;5974;42.710;27.258;2023-09-08T09:01:36;100476.84;;;29.11;55.91
12349;BME280;5974;42.710;27.258;2023-09-08T09:04:05;100465.59;;;28.99;57.12
12349;BME280;5974;42.710;27.258;2023-09-08T09:06:32;100482.09;;;28.64;55.67
12349;BME280;5974;42.710;27.258;2023-09-08T09:09:01;100491.19;;;28.47;56.30
12349;BME280;5974;42.710;27.258;2023-09-08T09:11:29;100480.59;;;28.78;57.33
12349;BME280;5974;42.710;27.258;2023-09-08T09:13:57;100477.34;;;29.15;56.86
12349;BME280;5974;42.710;27.258;2023-09-08T09:16:24;100478.41;;;28.81;56.81
12349;BME280;5974;42.710;27.258;2023-09-08T09:18:55;100491.88;;;28.57;59.47
12349;BME280;5974;42.710;27.258;2023-09-08T09:21:22;100478.38;;;28.09;60.76
12349;BME280;5974;42.710;27.258;2023-09-08T09:23:49;100496.97;;;27.86;60.76
12349;BME280;5974;42.710;27.258;2023-09-08T09:26:25;100489.28;;;27.57;61.96
12349;BME280;5974;42.710;27.258;2023-09-08T09:28:53;100476.69;;;27.58;62.72
12349;BME280;5974;42.710;27.258;2023-09-08T09:31:23;100504.44;;;27.66;64.28
12349;BME280;5974;42.710;27.258;2023-09-08T09:34:01;100494.47;;;27.51;66.68
12349;BME280;5974;42.710;27.258;2023-09-08T09:36:29;100495.06;;;27.78;69.77
12349;BME280;5974;42.710;27.258;2023-09-08T09:38:58;100494.72;;;27.73;70.77
12349;BME280;5974;42.710;27.258;2023-09-08T09:41:27;100499.88;;;27.25;74.20
12349;BME280;5974;42.710;27.258;2023-09-08T09:43:55;100509.09;;;26.79;79.65
12349;BME280;5974;42.710;27.258;2023-09-08T09:46:22;100505.50;;;26.70;83.17
12349;BME280;5974;42.710;27.258;2023-09-08T09:48:51;100515.09;;;26.73;84.92
12349;BME280;5974;42.710;27.258;2023-09-08T09:51:19;100521.00;;;26.94;87.13
12349;BME280;5974;42.710;27.258;2023-09-08T09:53:46;100512.41;;;26.73;86.32
12349;BME280;5974;42.710;27.258;2023-09-08T09:56:15;100489.28;;;26.36;89.11
12349;BME280;5974;42.710;27.258;2023-09-08T09:58:44;100507.72;;;26.75;92.47
12349;BME280;5974;42.710;27.258;2023-09-08T10:01:11;100505.91;;;26.58;88.63
12349;BME280;5974;42.710;27.258;2023-09-08T10:03:39;100506.00;;;26.48;83.34
12349;BME280;5974;42.710;27.258;2023-09-08T10:06:06;100502.63;;;26.28;84.91
12349;BME280;5974;42.710;27.258;2023-09-08T10:08:34;100514.94;;;26.21;88.97
12349;BME280;5974;42.710;27.258;2023-09-08T10:11:05;100510.78;;;26.09;90.54
12349;BME280;5974;42.710;27.258;2023-09-08T10:13:38;100522.97;;;25.76;92.57
12349;BME280;5974;42.710;27.258;2023-09-08T10:16:08;100506.66;;;25.70;97.29
12349;BME280;5974;42.710;27.258;2023-09-08T10:18:35;100498.41;;;25.54;100.00
12349;BME280;5974;42.710;27.258;2023-09-08T10:21:04;100509.88;;;25.73;100.00
12349;BME280;5974;42.710;27.258;2023-09-08T10:23:36;100497.34;;;25.92;100.00
12349;BME280;5974;42.710;27.258;2023-09-08T10:26:06;100494.25;;;25.96;95.20
12349;BME280;5974;42.710;27.258;2023-09-08T10:28:36;100499.41;;;26.25;89.92
12349;BME280;5974;42.710;27.258;2023-09-08T10:31:04;100491.78;;;26.03;90.54
12349;BME280;5974;42.710;27.258;2023-09-08T10:33:33;100499.50;;;26.06;93.99
12349;BME280;5974;42.710;27.258;2023-09-08T10:36:02;100498.69;;;26.05;95.41
12349;BME280;5974;42.710;27.258;2023-09-08T10:38:32;100504.97;;;25.96;98.00
12349;BME280;5974;42.710;27.258;2023-09-08T10:41:28;100518.69;;;26.11;99.84
12349;BME280;5974;42.710;27.258;2023-09-08T10:43:59;100502.03;;;25.90;100.00
12349;BME280;5974;42.710;27.258;2023-09-08T10:46:29;100515.88;;;25.85;100.00
12349;BME280;5974;42.710;27.258;2023-09-08T10:49:03;100509.91;;;25.91;100.00
12349;BME280;5974;42.710;27.258;2023-09-08T10:51:30;100501.81;;;26.01;100.00
12349;BME280;5974;42.710;27.258;2023-09-08T10:53:57;100503.00;;;26.16;100.00
12349;BME280;5974;42.710;27.258;2023-09-08T10:56:27;100494.50;;;26.38;100.00
12349;BME280;5974;42.710;27.258;2023-09-08T10:58:55;100492.19;;;26.43;100.00
12349;BME280;5974;42.710;27.258;2023-09-08T11:01:22;100442.41;;;26.05;100.00
12349;BME280;5974;42.710;27.258;2023-09-08T11:03:52;100485.94;;;26.78;100.00
12349;BME280;5974;42.710;27.258;2023-09-08T11:06:21;100488.13;;;26.57;100.00
12349;BME280;5974;42.710;27.258;2023-09-08T11:08:49;100483.25;;;26.78;100.00
12349;BME280;5974;42.710;27.258;2023-09-08T11:11:20;100490.81;;;27.00;100.00
12349;BME280;5974;42.710;27.258;2023-09-08T11:13:47;100483.50;;;27.44;99.54
12349;BME280;5974;42.710;27.258;2023-09-08T11:16:14;100484.72;;;27.16;91.71
12349;BME280;5974;42.710;27.258;2023-09-08T11:18:43;100490.25;;;27.48;90.60
12349;BME280;5974;42.710;27.258;2023-09-08T11:21:10;100479.72;;;27.63;89.19
12349;BME280;5974;42.710;27.258;2023-09-08T11:23:38;100488.75;;;27.45;87.25
12349;BME280;5974;42.710;27.258;2023-09-08T11:26:06;100441.75;;;26.90;88.44
12349;BME280;5974;42.710;27.258;2023-09-08T11:28:34;100480.03;;;27.26;90.19
12349;BME280;5974;42.710;27.258;2023-09-08T11:31:01;100452.31;;;27.17;89.66
12349;BME280;5974;42.710;27.258;2023-09-08T11:33:33;100472.16;;;27.58;88.58
12349;BME280;5974;42.710;27.258;2023-09-08T11:36:11;100450.16;;;27.63;86.99
12349;BME280;5974;42.710;27.258;2023-09-08T11:38:41;100449.34;;;27.62;87.51
12349;BME280;5974;42.710;27.258;2023-09-08T11:41:09;100455.44;;;27.88;87.22
12349;BME280;5974;42.710;27.258;2023-09-08T11:43:36;100439.84;;;27.92;86.64
12349;BME280;5974;42.710;27.258;2023-09-08T11:46:03;100424.00;;;27.73;84.72
12349;BME280;5974;42.710;27.258;2023-09-08T11:48:31;100446.16;;;27.75;83.08
12349;BME280;5974;42.710;27.258;2023-09-08T11:50:58;100444.53;;;27.40;83.36
12349;BME280;5974;42.710;27.258;2023-09-08T11:53:25;100442.47;;;27.76;84.63
12349;BME280;5974;42.710;27.258;2023-09-08T11:55:54;100459.72;;;27.23;81.94
12349;BME280;5974;42.710;27.258;2023-09-08T11:58:21;100449.22;;;27.04;82.29
12349;BME280;5974;42.710;27.258;2023-09-08T12:00:49;100453.34;;;27.16;81.63
12349;BME280;5974;42.710;27.258;2023-09-08T12:03:16;100449.91;;;26.80;81.57
12349;BME280;5974;42.710;27.258;2023-09-08T12:05:44;100453.03;;;26.93;80.94
12349;BME280;5974;42.710;27.258;2023-09-08T12:08:17;100445.31;;;26.73;80.76
12349;BME280;5974;42.710;27.258;2023-09-08T12:10:44;100436.25;;;26.74;83.25
12349;BME280;5974;42.710;27.258;2023-09-08T12:13:12;100434.19;;;26.85;82.96
12349;BME280;5974;42.710;27.258;2023-09-08T12:15:42;100430.84;;;26.66;81.58
12349;BME280;5974;42.710;27.258;2023-09-08T12:18:12;100438.16;;;26.56;81.57
12349;BME280;5974;42.710;27.258;2023-09-08T12:20:41;100431.47;;;26.60;79.92
12349;BME280;5974;42.710;27.258;2023-09-08T12:23:16;100418.56;;;26.81;79.81
12349;BME280;5974;42.710;27.258;2023-09-08T12:25:44;100427.59;;;26.80;78.23
12349;BME280;5974;42.710;27.258;2023-09-08T12:28:13;100417.00;;;26.78;74.07
12349;BME280;5974;42.710;27.258;2023-09-08T12:30:40;100420.06;;;27.09;76.00
12349;BME280;5974;42.710;27.258;2023-09-08T12:33:08;100410.94;;;27.36;76.96
12349;BME280;5974;42.710;27.258;2023-09-08T12:35:35;100413.78;;;27.34;76.89
12349;BME280;5974;42.710;27.258;2023-09-08T12:38:03;100427.78;;;27.46;76.46
12349;BME280;5974;42.710;27.258;2023-09-08T12:40:34;100418.63;;;27.65;77.61
12349;BME280;5974;42.710;27.258;2023-09-08T12:43:01;100388.53;;;27.53;76.50
12349;BME280;5974;42.710;27.258;2023-09-08T12:45:29;100421.50;;;27.71;75.58
12349;BME280;5974;42.710;27.258;2023-09-08T12:47:59;100423.28;;;27.13;77.06
12349;BME280;5974;42.710;27.258;2023-09-08T12:50:27;100419.66;;;26.96;81.48